sensor_id;sensor_type;location;lat;lon;timestamp;temperature;humidity
46758;DHT22;32509;47.750;-3.396;2023-05-02T00:00:15;14.00;99.90
46758;DHT22;32509;47.750;-3.396;2023-05-02T00:02:41;14.00;99.90
46758;DHT22;32509;47.750;-3.396;2023-05-02T00:05:07;14.10;99.90
46758;DHT22;32509;47.750;-3.396;2023-05-02T00:07:32;14.10;99.90
46758;DHT22;32509;47.750;-3.396;2023-05-02T00:09:58;14.00;99.90
46758;DHT22;32509;47.750;-3.396;2023-05-02T00:12:27;14.00;99.90
46758;DHT22;32509;47.750;-3.396;2023-05-02T00:14:53;14.00;99.90
46758;DHT22;32509;47.750;-3.396;2023-05-02T00:17:19;14.00;99.90
46758;DHT22;32509;47.750;-3.396;2023-05-02T00:19:46;14.00;99.90
46758;DHT22;32509;47.750;-3.396;2023-05-02T00:22:11;14.00;99.90
46758;DHT22;32509;47.750;-3.396;2023-05-02T00:24:37;14.00;99.90
46758;DHT22;32509;47.750;-3.396;2023-05-02T00:27:03;14.00;99.90
46758;DHT22;32509;47.750;-3.396;2023-05-02T00:29:30;14.00;99.90
46758;DHT22;32509;47.750;-3.396;2023-05-02T00:31:56;13.90;99.90
46758;DHT22;32509;47.750;-3.396;2023-05-02T00:34:23;14.00;99.90
46758;DHT22;32509;47.750;-3.396;2023-05-02T00:36:49;14.00;99.90
46758;DHT22;32509;47.750;-3.396;2023-05-02T00:39:15;14.00;99.90
46758;DHT22;32509;47.750;-3.396;2023-05-02T00:41:41;14.00;99.90
46758;DHT22;32509;47.750;-3.396;2023-05-02T00:44:06;14.00;99.90
46758;DHT22;32509;47.750;-3.396;2023-05-02T00:46:33;13.90;99.90
46758;DHT22;32509;47.750;-3.396;2023-05-02T00:49:00;13.90;99.90
46758;DHT22;32509;47.750;-3.396;2023-05-02T00:51:26;13.90;99.90
46758;DHT22;32509;47.750;-3.396;2023-05-02T00:53:52;13.90;99.90
46758;DHT22;32509;47.750;-3.396;2023-05-02T00:56:18;13.90;99.90
46758;DHT22;32509;47.750;-3.396;2023-05-02T00:58:44;13.90;99.90
46758;DHT22;32509;47.750;-3.396;2023-05-02T01:01:49;13.90;99.90
46758;DHT22;32509;47.750;-3.396;2023-05-02T01:04:46;13.90;99.90
46758;DHT22;32509;47.750;-3.396;2023-05-02T01:15:34;13.80;99.90
46758;DHT22;32509;47.750;-3.396;2023-05-02T01:18:02;13.80;99.90
46758;DHT22;32509;47.750;-3.396;2023-05-02T01:20:29;13.80;99.90
46758;DHT22;32509;47.750;-3.396;2023-05-02T01:23:01;13.80;99.90
46758;DHT22;32509;47.750;-3.396;2023-05-02T01:25:52;13.80;99.90
46758;DHT22;32509;47.750;-3.396;2023-05-02T01:30:48;13.80;99.90
46758;DHT22;32509;47.750;-3.396;2023-05-02T01:33:16;13.80;99.90
46758;DHT22;32509;47.750;-3.396;2023-05-02T01:35:45;13.70;99.90
46758;DHT22;32509;47.750;-3.396;2023-05-02T01:38:14;13.70;99.90
46758;DHT22;32509;47.750;-3.396;2023-05-02T01:40:44;13.70;99.90
46758;DHT22;32509;47.750;-3.396;2023-05-02T01:43:12;13.70;99.90
46758;DHT22;32509;47.750;-3.396;2023-05-02T01:45:40;13.70;99.90
46758;DHT22;32509;47.750;-3.396;2023-05-02T01:48:08;13.70;99.90
46758;DHT22;32509;47.750;-3.396;2023-05-02T01:50:36;13.70;99.90
46758;DHT22;32509;47.750;-3.396;2023-05-02T01:53:04;13.60;99.90
46758;DHT22;32509;47.750;-3.396;2023-05-02T01:55:34;13.60;99.90
46758;DHT22;32509;47.750;-3.396;2023-05-02T01:58:01;13.60;99.90
46758;DHT22;32509;47.750;-3.396;2023-05-02T02:00:28;13.60;99.90
46758;DHT22;32509;47.750;-3.396;2023-05-02T02:02:56;13.60;99.90
46758;DHT22;32509;47.750;-3.396;2023-05-02T02:05:23;13.50;99.90
46758;DHT22;32509;47.750;-3.396;2023-05-02T02:07:50;13.50;99.90
46758;DHT22;32509;47.750;-3.396;2023-05-02T02:10:16;13.40;99.90
46758;DHT22;32509;47.750;-3.396;2023-05-02T02:12:47;13.50;99.90
46758;DHT22;32509;47.750;-3.396;2023-05-02T02:17:48;13.50;99.90
46758;DHT22;32509;47.750;-3.396;2023-05-02T02:20:14;13.50;99.90
46758;DHT22;32509;47.750;-3.396;2023-05-02T02:22:43;13.50;99.90
46758;DHT22;32509;47.750;-3.396;2023-05-02T02:25:11;13.50;99.90
46758;DHT22;32509;47.750;-3.396;2023-05-02T02:27:39;13.50;99.90
46758;DHT22;32509;47.750;-3.396;2023-05-02T02:30:09;13.50;99.90
46758;DHT22;32509;47.750;-3.396;2023-05-02T02:32:35;13.50;99.90
46758;DHT22;32509;47.750;-3.396;2023-05-02T02:35:01;13.50;99.90
46758;DHT22;32509;47.750;-3.396;2023-05-02T02:37:34;13.40;99.90
46758;DHT22;32509;47.750;-3.396;2023-05-02T02:40:23;13.40;99.90
46758;DHT22;32509;47.750;-3.396;2023-05-02T02:48:42;13.40;99.90
46758;DHT22;32509;47.750;-3.396;2023-05-02T02:51:30;13.40;99.90
46758;DHT22;32509;47.750;-3.396;2023-05-02T02:59:58;13.30;99.90
46758;DHT22;32509;47.750;-3.396;2023-05-02T03:02:29;13.40;99.90
46758;DHT22;32509;47.750;-3.396;2023-05-02T03:04:56;13.40;99.90
46758;DHT22;32509;47.750;-3.396;2023-05-02T03:07:25;13.40;99.90
46758;DHT22;32509;47.750;-3.396;2023-05-02T03:09:51;13.40;99.90
46758;DHT22;32509;47.750;-3.396;2023-05-02T03:12:17;13.30;99.90
46758;DHT22;32509;47.750;-3.396;2023-05-02T03:14:43;13.30;99.90
46758;DHT22;32509;47.750;-3.396;2023-05-02T03:17:09;13.40;99.90
46758;DHT22;32509;47.750;-3.396;2023-05-02T03:19:35;13.30;99.90
46758;DHT22;32509;47.750;-3.396;2023-05-02T03:22:02;13.30;99.90
46758;DHT22;32509;47.750;-3.396;2023-05-02T03:24:28;13.30;99.90
46758;DHT22;32509;47.750;-3.396;2023-05-02T03:26:55;13.40;99.90
46758;DHT22;32509;47.750;-3.396;2023-05-02T03:29:21;13.30;99.90
46758;DHT22;32509;47.750;-3.396;2023-05-02T03:31:47;13.30;99.90
46758;DHT22;32509;47.750;-3.396;2023-05-02T03:34:13;13.30;99.90
46758;DHT22;32509;47.750;-3.396;2023-05-02T03:36:39;13.30;99.90
46758;DHT22;32509;47.750;-3.396;2023-05-02T03:39:05;13.30;99.90
46758;DHT22;32509;47.750;-3.396;2023-05-02T03:41:31;13.20;99.90
46758;DHT22;32509;47.750;-3.396;2023-05-02T03:43:57;13.20;99.90
46758;DHT22;32509;47.750;-3.396;2023-05-02T03:46:22;13.20;99.90
46758;DHT22;32509;47.750;-3.396;2023-05-02T03:48:48;13.20;99.90
46758;DHT22;32509;47.750;-3.396;2023-05-02T03:51:15;13.20;99.90
46758;DHT22;32509;47.750;-3.396;2023-05-02T03:53:41;13.20;99.90
46758;DHT22;32509;47.750;-3.396;2023-05-02T03:56:06;13.20;99.90
46758;DHT22;32509;47.750;-3.396;2023-05-02T03:58:33;13.10;99.90
46758;DHT22;32509;47.750;-3.396;2023-05-02T04:01:00;13.10;99.90
46758;DHT22;32509;47.750;-3.396;2023-05-02T04:03:26;13.10;99.90
46758;DHT22;32509;47.750;-3.396;2023-05-02T04:05:53;13.20;99.90
46758;DHT22;32509;47.750;-3.396;2023-05-02T04:08:19;13.10;99.90
46758;DHT22;32509;47.750;-3.396;2023-05-02T04:10:45;13.10;99.90
46758;DHT22;32509;47.750;-3.396;2023-05-02T04:13:11;13.10;99.90
46758;DHT22;32509;47.750;-3.396;2023-05-02T04:15:37;13.10;99.90
46758;DHT22;32509;47.750;-3.396;2023-05-02T04:18:02;13.00;99.90
46758;DHT22;32509;47.750;-3.396;2023-05-02T04:20:29;13.10;99.90
46758;DHT22;32509;47.750;-3.396;2023-05-02T04:22:55;13.00;99.90
46758;DHT22;32509;47.750;-3.396;2023-05-02T04:25:21;13.00;99.90
46758;DHT22;32509;47.750;-3.396;2023-05-02T04:27:46;13.00;99.90
46758;DHT22;32509;47.750;-3.396;2023-05-02T04:30:12;13.00;99.90
46758;DHT22;32509;47.750;-3.396;2023-05-02T04:32:38;13.00;99.90
46758;DHT22;32509;47.750;-3.396;2023-05-02T04:35:05;13.00;99.90
46758;DHT22;32509;47.750;-3.396;2023-05-02T04:37:31;13.00;99.90
46758;DHT22;32509;47.750;-3.396;2023-05-02T04:39:57;13.00;99.90
46758;DHT22;32509;47.750;-3.396;2023-05-02T04:42:23;13.00;99.90
46758;DHT22;32509;47.750;-3.396;2023-05-02T04:44:48;13.00;99.90
46758;DHT22;32509;47.750;-3.396;2023-05-02T04:47:14;13.00;99.90
46758;DHT22;32509;47.750;-3.396;2023-05-02T04:49:40;13.00;99.90
46758;DHT22;32509;47.750;-3.396;2023-05-02T04:52:08;13.00;99.90
46758;DHT22;32509;47.750;-3.396;2023-05-02T04:54:34;13.00;99.90
46758;DHT22;32509;47.750;-3.396;2023-05-02T04:56:59;12.90;99.90
46758;DHT22;32509;47.750;-3.396;2023-05-02T04:59:28;12.90;99.90
46758;DHT22;32509;47.750;-3.396;2023-05-02T05:01:55;12.90;99.90
46758;DHT22;32509;47.750;-3.396;2023-05-02T05:04:20;12.90;99.90
46758;DHT22;32509;47.750;-3.396;2023-05-02T05:06:46;12.90;99.90
46758;DHT22;32509;47.750;-3.396;2023-05-02T05:09:13;12.90;99.90
46758;DHT22;32509;47.750;-3.396;2023-05-02T05:11:40;12.90;99.90
46758;DHT22;32509;47.750;-3.396;2023-05-02T05:14:07;12.80;99.90
46758;DHT22;32509;47.750;-3.396;2023-05-02T05:16:33;12.90;99.90
46758;DHT22;32509;47.750;-3.396;2023-05-02T05:18:59;13.00;99.90
46758;DHT22;32509;47.750;-3.396;2023-05-02T05:21:26;13.00;99.90
46758;DHT22;32509;47.750;-3.396;2023-05-02T05:23:51;13.00;99.90
46758;DHT22;32509;47.750;-3.396;2023-05-02T05:26:17;13.00;99.90
46758;DHT22;32509;47.750;-3.396;2023-05-02T05:28:43;13.00;99.90
46758;DHT22;32509;47.750;-3.396;2023-05-02T05:31:11;12.90;99.90
46758;DHT22;32509;47.750;-3.396;2023-05-02T05:33:38;12.90;99.90
46758;DHT22;32509;47.750;-3.396;2023-05-02T05:38:30;12.90;99.90
46758;DHT22;32509;47.750;-3.396;2023-05-02T05:40:56;12.90;99.90
46758;DHT22;32509;47.750;-3.396;2023-05-02T05:43:21;12.90;99.90
46758;DHT22;32509;47.750;-3.396;2023-05-02T05:45:47;12.90;99.90
46758;DHT22;32509;47.750;-3.396;2023-05-02T05:48:13;12.90;99.90
46758;DHT22;32509;47.750;-3.396;2023-05-02T05:50:38;12.90;99.90
46758;DHT22;32509;47.750;-3.396;2023-05-02T05:53:04;13.00;99.90
46758;DHT22;32509;47.750;-3.396;2023-05-02T05:55:30;13.00;99.90
46758;DHT22;32509;47.750;-3.396;2023-05-02T05:57:56;13.00;99.90
46758;DHT22;32509;47.750;-3.396;2023-05-02T06:00:21;13.00;99.90
46758;DHT22;32509;47.750;-3.396;2023-05-02T06:02:48;13.00;99.90
46758;DHT22;32509;47.750;-3.396;2023-05-02T06:05:13;13.00;99.90
46758;DHT22;32509;47.750;-3.396;2023-05-02T06:07:40;13.00;99.90
46758;DHT22;32509;47.750;-3.396;2023-05-02T06:10:06;13.00;99.90
46758;DHT22;32509;47.750;-3.396;2023-05-02T06:12:31;12.90;99.90
46758;DHT22;32509;47.750;-3.396;2023-05-02T06:14:57;12.90;99.90
46758;DHT22;32509;47.750;-3.396;2023-05-02T06:17:23;12.90;99.90
46758;DHT22;32509;47.750;-3.396;2023-05-02T06:19:49;13.00;99.90
46758;DHT22;32509;47.750;-3.396;2023-05-02T06:22:14;12.90;99.90
46758;DHT22;32509;47.750;-3.396;2023-05-02T06:24:40;13.00;99.90
46758;DHT22;32509;47.750;-3.396;2023-05-02T06:27:06;13.00;99.90
46758;DHT22;32509;47.750;-3.396;2023-05-02T06:29:31;12.90;99.90
46758;DHT22;32509;47.750;-3.396;2023-05-02T06:31:57;12.90;99.90
46758;DHT22;32509;47.750;-3.396;2023-05-02T06:34:23;12.90;99.90
46758;DHT22;32509;47.750;-3.396;2023-05-02T06:36:53;12.90;99.90
46758;DHT22;32509;47.750;-3.396;2023-05-02T06:39:20;13.00;99.90
46758;DHT22;32509;47.750;-3.396;2023-05-02T06:41:46;12.90;99.90
46758;DHT22;32509;47.750;-3.396;2023-05-02T06:44:12;12.90;99.90
46758;DHT22;32509;47.750;-3.396;2023-05-02T06:46:38;13.00;99.90
46758;DHT22;32509;47.750;-3.396;2023-05-02T06:49:04;13.00;99.90
46758;DHT22;32509;47.750;-3.396;2023-05-02T06:51:30;13.00;99.90
46758;DHT22;32509;47.750;-3.396;2023-05-02T06:53:56;13.00;99.90
46758;DHT22;32509;47.750;-3.396;2023-05-02T06:56:23;13.00;99.90
46758;DHT22;32509;47.750;-3.396;2023-05-02T06:58:50;13.10;99.90
46758;DHT22;32509;47.750;-3.396;2023-05-02T07:01:16;13.10;99.90
46758;DHT22;32509;47.750;-3.396;2023-05-02T07:03:42;13.10;99.90
46758;DHT22;32509;47.750;-3.396;2023-05-02T07:06:08;13.20;99.90
46758;DHT22;32509;47.750;-3.396;2023-05-02T07:08:34;13.10;99.90
46758;DHT22;32509;47.750;-3.396;2023-05-02T07:11:01;13.20;99.90
46758;DHT22;32509;47.750;-3.396;2023-05-02T07:13:27;13.20;99.90
46758;DHT22;32509;47.750;-3.396;2023-05-02T07:15:52;13.20;99.90
46758;DHT22;32509;47.750;-3.396;2023-05-02T07:18:18;13.30;99.90
46758;DHT22;32509;47.750;-3.396;2023-05-02T07:20:44;13.30;99.90
46758;DHT22;32509;47.750;-3.396;2023-05-02T07:23:10;13.30;99.90
46758;DHT22;32509;47.750;-3.396;2023-05-02T07:25:36;13.30;99.90
46758;DHT22;32509;47.750;-3.396;2023-05-02T07:28:02;13.40;99.90
46758;DHT22;32509;47.750;-3.396;2023-05-02T07:30:28;13.40;99.90
46758;DHT22;32509;47.750;-3.396;2023-05-02T07:32:53;13.40;99.90
46758;DHT22;32509;47.750;-3.396;2023-05-02T07:35:19;13.50;99.90
46758;DHT22;32509;47.750;-3.396;2023-05-02T07:37:45;13.50;99.90
46758;DHT22;32509;47.750;-3.396;2023-05-02T07:40:11;13.50;99.90
46758;DHT22;32509;47.750;-3.396;2023-05-02T07:42:36;13.50;99.90
46758;DHT22;32509;47.750;-3.396;2023-05-02T07:45:02;13.60;99.90
46758;DHT22;32509;47.750;-3.396;2023-05-02T07:47:28;13.60;99.90
46758;DHT22;32509;47.750;-3.396;2023-05-02T07:49:55;13.60;99.90
46758;DHT22;32509;47.750;-3.396;2023-05-02T07:52:21;13.70;99.90
46758;DHT22;32509;47.750;-3.396;2023-05-02T07:54:47;13.70;99.90
46758;DHT22;32509;47.750;-3.396;2023-05-02T07:57:14;13.70;99.90
46758;DHT22;32509;47.750;-3.396;2023-05-02T07:59:39;13.80;99.90
46758;DHT22;32509;47.750;-3.396;2023-05-02T08:02:06;13.80;99.90
46758;DHT22;32509;47.750;-3.396;2023-05-02T08:04:32;13.90;99.90
46758;DHT22;32509;47.750;-3.396;2023-05-02T08:06:58;13.90;99.90
46758;DHT22;32509;47.750;-3.396;2023-05-02T08:09:23;13.90;99.90
46758;DHT22;32509;47.750;-3.396;2023-05-02T08:11:52;13.90;99.90
46758;DHT22;32509;47.750;-3.396;2023-05-02T08:14:18;14.00;99.90
46758;DHT22;32509;47.750;-3.396;2023-05-02T08:16:44;14.00;99.90
46758;DHT22;32509;47.750;-3.396;2023-05-02T08:19:09;14.10;99.90
46758;DHT22;32509;47.750;-3.396;2023-05-02T08:21:35;14.10;99.90
46758;DHT22;32509;47.750;-3.396;2023-05-02T08:24:01;14.10;99.90
46758;DHT22;32509;47.750;-3.396;2023-05-02T08:26:27;14.20;99.90
46758;DHT22;32509;47.750;-3.396;2023-05-02T08:28:56;14.20;99.90
46758;DHT22;32509;47.750;-3.396;2023-05-02T08:31:21;14.20;99.90
46758;DHT22;32509;47.750;-3.396;2023-05-02T08:33:47;14.30;99.90
46758;DHT22;32509;47.750;-3.396;2023-05-02T08:36:17;14.30;99.90
46758;DHT22;32509;47.750;-3.396;2023-05-02T08:38:44;14.30;99.90
46758;DHT22;32509;47.750;-3.396;2023-05-02T08:41:17;14.40;99.90
46758;DHT22;32509;47.750;-3.396;2023-05-02T08:43:44;14.40;99.90
46758;DHT22;32509;47.750;-3.396;2023-05-02T08:46:12;14.50;99.90
46758;DHT22;32509;47.750;-3.396;2023-05-02T08:48:43;14.50;99.90
46758;DHT22;32509;47.750;-3.396;2023-05-02T08:51:11;14.60;99.90
46758;DHT22;32509;47.750;-3.396;2023-05-02T08:53:38;14.60;99.90
46758;DHT22;32509;47.750;-3.396;2023-05-02T08:56:05;14.70;99.90
46758;DHT22;32509;47.750;-3.396;2023-05-02T08:58:31;14.70;99.90
46758;DHT22;32509;47.750;-3.396;2023-05-02T09:01:00;14.80;99.90
46758;DHT22;32509;47.750;-3.396;2023-05-02T09:03:34;14.80;99.90
46758;DHT22;32509;47.750;-3.396;2023-05-02T09:06:11;14.90;99.90
46758;DHT22;32509;47.750;-3.396;2023-05-02T09:08:38;14.90;99.90
46758;DHT22;32509;47.750;-3.396;2023-05-02T09:11:11;14.90;99.90
46758;DHT22;32509;47.750;-3.396;2023-05-02T09:18:42;15.10;99.90
46758;DHT22;32509;47.750;-3.396;2023-05-02T09:21:14;15.10;99.90
46758;DHT22;32509;47.750;-3.396;2023-05-02T09:23:48;15.20;99.90
46758;DHT22;32509;47.750;-3.396;2023-05-02T09:26:23;15.20;99.90
46758;DHT22;32509;47.750;-3.396;2023-05-02T09:28:53;15.30;99.90
46758;DHT22;32509;47.750;-3.396;2023-05-02T09:31:24;15.30;99.90
46758;DHT22;32509;47.750;-3.396;2023-05-02T09:33:55;15.30;99.90
46758;DHT22;32509;47.750;-3.396;2023-05-02T09:36:21;15.30;99.90
46758;DHT22;32509;47.750;-3.396;2023-05-02T09:38:48;15.40;99.90
46758;DHT22;32509;47.750;-3.396;2023-05-02T09:41:15;15.40;99.90
46758;DHT22;32509;47.750;-3.396;2023-05-02T09:43:54;15.50;99.90
46758;DHT22;32509;47.750;-3.396;2023-05-02T09:46:21;15.50;99.90
46758;DHT22;32509;47.750;-3.396;2023-05-02T09:48:55;15.50;99.90
46758;DHT22;32509;47.750;-3.396;2023-05-02T09:51:22;15.50;99.90
46758;DHT22;32509;47.750;-3.396;2023-05-02T09:53:48;15.60;99.90
46758;DHT22;32509;47.750;-3.396;2023-05-02T09:56:15;15.60;99.90
46758;DHT22;32509;47.750;-3.396;2023-05-02T09:58:40;15.70;99.90
46758;DHT22;32509;47.750;-3.396;2023-05-02T10:01:06;15.70;99.90
46758;DHT22;32509;47.750;-3.396;2023-05-02T10:03:36;15.70;99.90
46758;DHT22;32509;47.750;-3.396;2023-05-02T10:06:04;15.70;99.90
46758;DHT22;32509;47.750;-3.396;2023-05-02T10:08:33;15.70;99.90
46758;DHT22;32509;47.750;-3.396;2023-05-02T10:10:59;15.70;99.90
46758;DHT22;32509;47.750;-3.396;2023-05-02T10:13:29;15.80;99.90
46758;DHT22;32509;47.750;-3.396;2023-05-02T10:16:02;15.80;99.90
46758;DHT22;32509;47.750;-3.396;2023-05-02T10:18:37;15.80;99.90
46758;DHT22;32509;47.750;-3.396;2023-05-02T10:21:10;15.90;99.90
46758;DHT22;32509;47.750;-3.396;2023-05-02T10:23:41;16.00;99.90
46758;DHT22;32509;47.750;-3.396;2023-05-02T10:26:14;16.00;99.90
46758;DHT22;32509;47.750;-3.396;2023-05-02T10:28:41;16.00;99.90
46758;DHT22;32509;47.750;-3.396;2023-05-02T10:31:12;16.00;99.90
46758;DHT22;32509;47.750;-3.396;2023-05-02T10:33:39;16.00;99.90
46758;DHT22;32509;47.750;-3.396;2023-05-02T10:36:07;16.10;99.90
46758;DHT22;32509;47.750;-3.396;2023-05-02T10:38:35;16.10;99.90
46758;DHT22;32509;47.750;-3.396;2023-05-02T10:41:18;16.00;99.90
46758;DHT22;32509;47.750;-3.396;2023-05-02T10:43:46;16.00;99.90
46758;DHT22;32509;47.750;-3.396;2023-05-02T10:46:30;16.10;99.90
46758;DHT22;32509;47.750;-3.396;2023-05-02T10:49:03;16.10;99.90
46758;DHT22;32509;47.750;-3.396;2023-05-02T10:51:29;16.10;99.90
46758;DHT22;32509;47.750;-3.396;2023-05-02T10:57:02;16.20;99.90
46758;DHT22;32509;47.750;-3.396;2023-05-02T10:59:38;16.20;99.90
46758;DHT22;32509;47.750;-3.396;2023-05-02T11:02:50;16.30;99.90
46758;DHT22;32509;47.750;-3.396;2023-05-02T11:05:07;16.30;99.90
46758;DHT22;32509;47.750;-3.396;2023-05-02T11:07:35;16.30;99.90
46758;DHT22;32509;47.750;-3.396;2023-05-02T11:12:46;16.40;99.90
46758;DHT22;32509;47.750;-3.396;2023-05-02T11:15:12;16.40;99.90
46758;DHT22;32509;47.750;-3.396;2023-05-02T11:18:03;16.40;99.90
46758;DHT22;32509;47.750;-3.396;2023-05-02T11:20:35;16.40;99.90
46758;DHT22;32509;47.750;-3.396;2023-05-02T11:25:44;16.40;99.90
46758;DHT22;32509;47.750;-3.396;2023-05-02T11:31:01;16.40;99.90
46758;DHT22;32509;47.750;-3.396;2023-05-02T11:33:28;16.40;99.90
46758;DHT22;32509;47.750;-3.396;2023-05-02T11:35:54;16.40;99.90
46758;DHT22;32509;47.750;-3.396;2023-05-02T11:38:21;16.50;99.90
46758;DHT22;32509;47.750;-3.396;2023-05-02T11:40:57;16.50;99.90
46758;DHT22;32509;47.750;-3.396;2023-05-02T11:43:25;16.50;99.90
46758;DHT22;32509;47.750;-3.396;2023-05-02T11:45:55;16.50;99.90
46758;DHT22;32509;47.750;-3.396;2023-05-02T11:48:22;16.50;99.90
46758;DHT22;32509;47.750;-3.396;2023-05-02T11:50:57;16.50;99.90
46758;DHT22;32509;47.750;-3.396;2023-05-02T11:53:27;16.50;99.90
46758;DHT22;32509;47.750;-3.396;2023-05-02T11:55:58;16.50;99.90
46758;DHT22;32509;47.750;-3.396;2023-05-02T11:58:27;16.60;99.90
46758;DHT22;32509;47.750;-3.396;2023-05-02T12:01:12;16.60;99.90
46758;DHT22;32509;47.750;-3.396;2023-05-02T12:03:38;16.60;99.90
46758;DHT22;32509;47.750;-3.396;2023-05-02T12:06:09;16.60;99.90
46758;DHT22;32509;47.750;-3.396;2023-05-02T12:08:36;16.60;99.90
46758;DHT22;32509;47.750;-3.396;2023-05-02T12:11:02;16.70;99.90
46758;DHT22;32509;47.750;-3.396;2023-05-02T12:13:28;16.70;99.90
46758;DHT22;32509;47.750;-3.396;2023-05-02T12:15:54;16.70;99.90
46758;DHT22;32509;47.750;-3.396;2023-05-02T12:18:22;16.80;99.90
46758;DHT22;32509;47.750;-3.396;2023-05-02T12:20:49;16.70;99.90
46758;DHT22;32509;47.750;-3.396;2023-05-02T12:23:16;16.70;99.90
46758;DHT22;32509;47.750;-3.396;2023-05-02T12:25:43;16.70;99.90
46758;DHT22;32509;47.750;-3.396;2023-05-02T12:28:09;16.70;99.90
46758;DHT22;32509;47.750;-3.396;2023-05-02T12:30:37;16.80;99.90
46758;DHT22;32509;47.750;-3.396;2023-05-02T12:33:03;16.70;99.90
46758;DHT22;32509;47.750;-3.396;2023-05-02T12:35:32;16.80;99.90
46758;DHT22;32509;47.750;-3.396;2023-05-02T12:38:16;16.80;99.90
46758;DHT22;32509;47.750;-3.396;2023-05-02T12:40:47;16.70;99.90
46758;DHT22;32509;47.750;-3.396;2023-05-02T12:43:14;16.70;99.90
46758;DHT22;32509;47.750;-3.396;2023-05-02T12:45:40;16.80;99.90
46758;DHT22;32509;47.750;-3.396;2023-05-02T12:48:25;16.80;99.90
46758;DHT22;32509;47.750;-3.396;2023-05-02T12:50:52;16.80;99.90
46758;DHT22;32509;47.750;-3.396;2023-05-02T12:53:37;16.70;99.90
46758;DHT22;32509;47.750;-3.396;2023-05-02T12:56:05;16.70;99.90
46758;DHT22;32509;47.750;-3.396;2023-05-02T12:58:42;16.70;99.90
46758;DHT22;32509;47.750;-3.396;2023-05-02T13:01:09;16.70;99.90
46758;DHT22;32509;47.750;-3.396;2023-05-02T13:03:35;16.60;99.90
46758;DHT22;32509;47.750;-3.396;2023-05-02T13:06:01;16.60;99.90
46758;DHT22;32509;47.750;-3.396;2023-05-02T13:08:27;16.60;99.90
46758;DHT22;32509;47.750;-3.396;2023-05-02T13:10:52;16.70;99.90
46758;DHT22;32509;47.750;-3.396;2023-05-02T13:13:18;16.60;99.90
46758;DHT22;32509;47.750;-3.396;2023-05-02T13:15:44;16.60;99.90
46758;DHT22;32509;47.750;-3.396;2023-05-02T13:18:10;16.60;99.90
46758;DHT22;32509;47.750;-3.396;2023-05-02T13:20:35;16.60;99.90
46758;DHT22;32509;47.750;-3.396;2023-05-02T13:23:01;16.60;99.90
46758;DHT22;32509;47.750;-3.396;2023-05-02T13:25:27;16.60;99.90
46758;DHT22;32509;47.750;-3.396;2023-05-02T13:27:53;16.60;99.90
46758;DHT22;32509;47.750;-3.396;2023-05-02T13:30:18;16.50;99.90
46758;DHT22;32509;47.750;-3.396;2023-05-02T13:32:44;16.50;99.90
46758;DHT22;32509;47.750;-3.396;2023-05-02T13:35:10;16.50;99.90
46758;DHT22;32509;47.750;-3.396;2023-05-02T13:37:38;16.50;99.90
46758;DHT22;32509;47.750;-3.396;2023-05-02T13:40:06;16.50;99.90
46758;DHT22;32509;47.750;-3.396;2023-05-02T13:42:32;16.50;99.90
46758;DHT22;32509;47.750;-3.396;2023-05-02T13:44:58;16.40;99.90
46758;DHT22;32509;47.750;-3.396;2023-05-02T13:47:24;16.40;99.90
46758;DHT22;32509;47.750;-3.396;2023-05-02T13:49:51;16.40;99.90
46758;DHT22;32509;47.750;-3.396;2023-05-02T13:52:17;16.40;99.90
46758;DHT22;32509;47.750;-3.396;2023-05-02T13:54:43;16.40;99.90
46758;DHT22;32509;47.750;-3.396;2023-05-02T13:57:08;16.30;99.90
46758;DHT22;32509;47.750;-3.396;2023-05-02T13:59:34;16.30;99.90
46758;DHT22;32509;47.750;-3.396;2023-05-02T14:02:00;16.30;99.90
46758;DHT22;32509;47.750;-3.396;2023-05-02T14:04:25;16.40;99.90
46758;DHT22;32509;47.750;-3.396;2023-05-02T14:06:51;16.30;99.90
46758;DHT22;32509;47.750;-3.396;2023-05-02T14:09:17;16.20;99.90
46758;DHT22;32509;47.750;-3.396;2023-05-02T14:11:43;16.20;99.90
46758;DHT22;32509;47.750;-3.396;2023-05-02T14:14:11;16.20;99.90
46758;DHT22;32509;47.750;-3.396;2023-05-02T14:16:38;16.20;99.90
46758;DHT22;32509;47.750;-3.396;2023-05-02T14:19:04;16.20;99.90
46758;DHT22;32509;47.750;-3.396;2023-05-02T14:21:30;16.20;99.90
46758;DHT22;32509;47.750;-3.396;2023-05-02T14:23:59;16.20;99.90
46758;DHT22;32509;47.750;-3.396;2023-05-02T14:26:27;16.20;99.90
46758;DHT22;32509;47.750;-3.396;2023-05-02T14:28:54;16.20;99.90
46758;DHT22;32509;47.750;-3.396;2023-05-02T14:31:21;16.20;99.90
46758;DHT22;32509;47.750;-3.396;2023-05-02T14:33:46;16.20;99.90
46758;DHT22;32509;47.750;-3.396;2023-05-02T14:36:12;16.10;99.90
46758;DHT22;32509;47.750;-3.396;2023-05-02T14:38:38;16.10;99.90
46758;DHT22;32509;47.750;-3.396;2023-05-02T14:41:04;16.10;99.90
46758;DHT22;32509;47.750;-3.396;2023-05-02T14:43:30;16.10;99.90
46758;DHT22;32509;47.750;-3.396;2023-05-02T14:45:56;16.10;99.90
46758;DHT22;32509;47.750;-3.396;2023-05-02T14:48:22;16.10;99.90
46758;DHT22;32509;47.750;-3.396;2023-05-02T14:50:47;16.10;99.90
46758;DHT22;32509;47.750;-3.396;2023-05-02T14:53:13;16.10;99.90
46758;DHT22;32509;47.750;-3.396;2023-05-02T14:55:39;16.10;99.90
46758;DHT22;32509;47.750;-3.396;2023-05-02T14:58:05;16.10;99.90
46758;DHT22;32509;47.750;-3.396;2023-05-02T15:00:33;16.10;99.90
46758;DHT22;32509;47.750;-3.396;2023-05-02T15:03:05;16.00;99.90
46758;DHT22;32509;47.750;-3.396;2023-05-02T15:05:31;16.00;99.90
46758;DHT22;32509;47.750;-3.396;2023-05-02T15:07:57;16.00;99.90
46758;DHT22;32509;47.750;-3.396;2023-05-02T15:10:23;16.00;99.90
46758;DHT22;32509;47.750;-3.396;2023-05-02T15:12:49;16.00;99.90
46758;DHT22;32509;47.750;-3.396;2023-05-02T15:15:18;16.00;99.90
46758;DHT22;32509;47.750;-3.396;2023-05-02T15:17:52;16.00;99.90
46758;DHT22;32509;47.750;-3.396;2023-05-02T15:20:18;16.00;99.90
46758;DHT22;32509;47.750;-3.396;2023-05-02T15:22:44;16.00;99.90
46758;DHT22;32509;47.750;-3.396;2023-05-02T15:25:10;16.00;99.90
46758;DHT22;32509;47.750;-3.396;2023-05-02T15:27:35;16.00;99.90
46758;DHT22;32509;47.750;-3.396;2023-05-02T15:30:01;16.00;99.90
46758;DHT22;32509;47.750;-3.396;2023-05-02T15:32:28;15.90;99.90
46758;DHT22;32509;47.750;-3.396;2023-05-02T15:34:54;16.00;99.90
46758;DHT22;32509;47.750;-3.396;2023-05-02T15:37:20;16.00;99.90
46758;DHT22;32509;47.750;-3.396;2023-05-02T15:39:45;16.00;99.90
46758;DHT22;32509;47.750;-3.396;2023-05-02T15:42:11;16.00;99.90
46758;DHT22;32509;47.750;-3.396;2023-05-02T15:44:37;16.00;99.90
46758;DHT22;32509;47.750;-3.396;2023-05-02T15:47:03;16.00;99.90
46758;DHT22;32509;47.750;-3.396;2023-05-02T15:49:29;16.00;99.90
46758;DHT22;32509;47.750;-3.396;2023-05-02T15:51:58;16.00;99.90
46758;DHT22;32509;47.750;-3.396;2023-05-02T15:54:24;16.00;99.90
46758;DHT22;32509;47.750;-3.396;2023-05-02T15:56:50;16.10;99.90
46758;DHT22;32509;47.750;-3.396;2023-05-02T15:59:16;16.00;99.90
46758;DHT22;32509;47.750;-3.396;2023-05-02T16:01:42;16.00;99.90